sensor_id;sensor_type;location;lat;lon;timestamp;P1;durP1;ratioP1;P2;durP2;ratioP2
68921;SDS011;55959;51.244;5.724;2023-07-31T00:01:18;6.13;;;3.55;;
68921;SDS011;55959;51.244;5.724;2023-07-31T00:03:45;7.95;;;3.45;;
68921;SDS011;55959;51.244;5.724;2023-07-31T00:06:11;4.05;;;3.05;;
68921;SDS011;55959;51.244;5.724;2023-07-31T00:08:37;5.60;;;3.53;;
68921;SDS011;55959;51.244;5.724;2023-07-31T00:11:03;7.47;;;3.90;;
68921;SDS011;55959;51.244;5.724;2023-07-31T00:13:29;8.18;;;3.60;;
68921;SDS011;55959;51.244;5.724;2023-07-31T00:15:54;5.90;;;3.22;;
68921;SDS011;55959;51.244;5.724;2023-07-31T00:18:20;6.03;;;3.60;;
68921;SDS011;55959;51.244;5.724;2023-07-31T00:20:46;8.15;;;3.42;;
68921;SDS011;55959;51.244;5.724;2023-07-31T00:23:12;6.18;;;3.58;;
68921;SDS011;55959;51.244;5.724;2023-07-31T00:25:39;7.40;;;3.40;;
68921;SDS011;55959;51.244;5.724;2023-07-31T00:28:04;6.97;;;3.50;;
68921;SDS011;55959;51.244;5.724;2023-07-31T00:30:30;7.32;;;3.83;;
68921;SDS011;55959;51.244;5.724;2023-07-31T00:32:56;6.18;;;3.60;;
68921;SDS011;55959;51.244;5.724;2023-07-31T00:35:22;7.13;;;3.65;;
68921;SDS011;55959;51.244;5.724;2023-07-31T00:37:49;7.80;;;4.28;;
68921;SDS011;55959;51.244;5.724;2023-07-31T00:40:14;5.28;;;3.45;;
68921;SDS011;55959;51.244;5.724;2023-07-31T00:42:40;7.72;;;3.03;;
68921;SDS011;55959;51.244;5.724;2023-07-31T00:45:06;6.13;;;3.80;;
68921;SDS011;55959;51.244;5.724;2023-07-31T00:47:32;5.07;;;3.28;;
68921;SDS011;55959;51.244;5.724;2023-07-31T00:49:58;8.15;;;3.78;;
68921;SDS011;55959;51.244;5.724;2023-07-31T00:52:24;5.75;;;3.50;;
68921;SDS011;55959;51.244;5.724;2023-07-31T00:54:50;5.35;;;3.33;;
68921;SDS011;55959;51.244;5.724;2023-07-31T00:57:16;6.60;;;3.45;;
68921;SDS011;55959;51.244;5.724;2023-07-31T00:59:42;7.05;;;3.47;;
68921;SDS011;55959;51.244;5.724;2023-07-31T01:02:08;5.57;;;3.33;;
68921;SDS011;55959;51.244;5.724;2023-07-31T01:04:33;7.68;;;3.65;;
68921;SDS011;55959;51.244;5.724;2023-07-31T01:07:14;6.57;;;3.92;;
68921;SDS011;55959;51.244;5.724;2023-07-31T01:10:04;7.78;;;3.80;;
68921;SDS011;55959;51.244;5.724;2023-07-31T01:13:06;5.90;;;3.60;;
68921;SDS011;55959;51.244;5.724;2023-07-31T01:15:33;6.78;;;4.20;;
68921;SDS011;55959;51.244;5.724;2023-07-31T01:17:59;6.10;;;3.42;;
68921;SDS011;55959;51.244;5.724;2023-07-31T01:20:25;7.35;;;3.50;;
68921;SDS011;55959;51.244;5.724;2023-07-31T01:25:52;6.70;;;3.83;;
68921;SDS011;55959;51.244;5.724;2023-07-31T01:31:29;8.68;;;4.30;;
68921;SDS011;55959;51.244;5.724;2023-07-31T01:34:00;6.78;;;3.35;;
68921;SDS011;55959;51.244;5.724;2023-07-31T01:36:26;6.68;;;3.30;;
68921;SDS011;55959;51.244;5.724;2023-07-31T01:38:57;8.88;;;4.13;;
68921;SDS011;55959;51.244;5.724;2023-07-31T01:41:25;8.52;;;4.35;;
68921;SDS011;55959;51.244;5.724;2023-07-31T01:43:51;9.90;;;3.90;;
68921;SDS011;55959;51.244;5.724;2023-07-31T01:46:17;8.30;;;3.67;;
68921;SDS011;55959;51.244;5.724;2023-07-31T01:48:42;8.25;;;3.00;;
68921;SDS011;55959;51.244;5.724;2023-07-31T01:51:08;6.97;;;3.65;;
68921;SDS011;55959;51.244;5.724;2023-07-31T01:53:34;10.25;;;4.15;;
68921;SDS011;55959;51.244;5.724;2023-07-31T01:56:00;8.93;;;4.60;;
68921;SDS011;55959;51.244;5.724;2023-07-31T01:58:25;6.75;;;3.30;;
68921;SDS011;55959;51.244;5.724;2023-07-31T02:00:51;8.32;;;3.88;;
68921;SDS011;55959;51.244;5.724;2023-07-31T02:03:17;9.18;;;3.92;;
68921;SDS011;55959;51.244;5.724;2023-07-31T02:05:47;8.60;;;3.58;;
68921;SDS011;55959;51.244;5.724;2023-07-31T02:08:14;8.90;;;3.92;;
68921;SDS011;55959;51.244;5.724;2023-07-31T02:10:41;5.43;;;3.60;;
68921;SDS011;55959;51.244;5.724;2023-07-31T02:13:06;7.93;;;3.85;;
68921;SDS011;55959;51.244;5.724;2023-07-31T02:15:32;6.85;;;4.20;;
68921;SDS011;55959;51.244;5.724;2023-07-31T02:17:59;7.88;;;4.15;;
68921;SDS011;55959;51.244;5.724;2023-07-31T02:20:25;8.77;;;3.63;;
68921;SDS011;55959;51.244;5.724;2023-07-31T02:22:51;7.72;;;3.53;;
68921;SDS011;55959;51.244;5.724;2023-07-31T02:25:17;6.93;;;3.60;;
68921;SDS011;55959;51.244;5.724;2023-07-31T02:27:43;10.38;;;3.75;;
68921;SDS011;55959;51.244;5.724;2023-07-31T02:30:09;7.20;;;4.00;;
68921;SDS011;55959;51.244;5.724;2023-07-31T02:32:36;7.38;;;3.60;;
68921;SDS011;55959;51.244;5.724;2023-07-31T02:35:01;5.40;;;3.17;;
68921;SDS011;55959;51.244;5.724;2023-07-31T02:37:27;8.52;;;3.97;;
68921;SDS011;55959;51.244;5.724;2023-07-31T02:39:54;7.53;;;3.80;;
68921;SDS011;55959;51.244;5.724;2023-07-31T02:42:20;7.22;;;3.58;;
68921;SDS011;55959;51.244;5.724;2023-07-31T02:44:46;6.82;;;3.70;;
68921;SDS011;55959;51.244;5.724;2023-07-31T02:47:12;9.10;;;4.05;;
68921;SDS011;55959;51.244;5.724;2023-07-31T02:49:37;6.40;;;3.67;;
68921;SDS011;55959;51.244;5.724;2023-07-31T02:52:03;6.32;;;3.40;;
68921;SDS011;55959;51.244;5.724;2023-07-31T02:54:29;6.00;;;3.53;;
68921;SDS011;55959;51.244;5.724;2023-07-31T02:56:55;7.35;;;3.95;;
68921;SDS011;55959;51.244;5.724;2023-07-31T02:59:20;7.72;;;3.70;;
68921;SDS011;55959;51.244;5.724;2023-07-31T03:01:46;9.02;;;3.80;;
68921;SDS011;55959;51.244;5.724;2023-07-31T03:04:12;8.77;;;4.05;;
68921;SDS011;55959;51.244;5.724;2023-07-31T03:06:38;6.63;;;3.30;;
68921;SDS011;55959;51.244;5.724;2023-07-31T03:09:03;7.03;;;3.38;;
68921;SDS011;55959;51.244;5.724;2023-07-31T03:11:30;5.40;;;3.53;;
68921;SDS011;55959;51.244;5.724;2023-07-31T03:13:56;5.63;;;3.80;;
68921;SDS011;55959;51.244;5.724;2023-07-31T03:16:22;6.43;;;3.38;;
68921;SDS011;55959;51.244;5.724;2023-07-31T03:18:47;5.70;;;3.33;;
68921;SDS011;55959;51.244;5.724;2023-07-31T03:21:14;7.50;;;3.72;;
68921;SDS011;55959;51.244;5.724;2023-07-31T03:23:40;7.07;;;3.70;;
68921;SDS011;55959;51.244;5.724;2023-07-31T03:26:08;7.47;;;4.05;;
68921;SDS011;55959;51.244;5.724;2023-07-31T03:28:34;7.95;;;4.18;;
68921;SDS011;55959;51.244;5.724;2023-07-31T03:31:00;6.35;;;3.72;;
68921;SDS011;55959;51.244;5.724;2023-07-31T03:33:27;7.82;;;4.13;;
68921;SDS011;55959;51.244;5.724;2023-07-31T03:35:53;7.10;;;3.92;;
68921;SDS011;55959;51.244;5.724;2023-07-31T03:38:19;7.95;;;3.67;;
68921;SDS011;55959;51.244;5.724;2023-07-31T03:40:44;7.80;;;4.00;;
68921;SDS011;55959;51.244;5.724;2023-07-31T03:43:11;8.93;;;3.85;;
68921;SDS011;55959;51.244;5.724;2023-07-31T03:45:37;9.18;;;4.43;;
68921;SDS011;55959;51.244;5.724;2023-07-31T03:48:03;6.45;;;3.70;;
68921;SDS011;55959;51.244;5.724;2023-07-31T03:50:29;6.20;;;3.72;;
68921;SDS011;55959;51.244;5.724;2023-07-31T03:52:55;6.43;;;3.70;;
68921;SDS011;55959;51.244;5.724;2023-07-31T03:55:21;6.43;;;3.53;;
68921;SDS011;55959;51.244;5.724;2023-07-31T03:57:47;5.32;;;3.47;;
68921;SDS011;55959;51.244;5.724;2023-07-31T04:00:13;4.47;;;3.00;;
68921;SDS011;55959;51.244;5.724;2023-07-31T04:02:39;8.05;;;4.22;;
68921;SDS011;55959;51.244;5.724;2023-07-31T04:05:05;5.30;;;3.17;;
68921;SDS011;55959;51.244;5.724;2023-07-31T04:07:31;5.82;;;3.65;;
68921;SDS011;55959;51.244;5.724;2023-07-31T04:09:57;6.72;;;4.00;;
68921;SDS011;55959;51.244;5.724;2023-07-31T04:12:22;6.70;;;3.30;;
68921;SDS011;55959;51.244;5.724;2023-07-31T04:14:48;6.40;;;3.95;;
68921;SDS011;55959;51.244;5.724;2023-07-31T04:17:14;5.68;;;3.70;;
68921;SDS011;55959;51.244;5.724;2023-07-31T04:19:40;4.10;;;3.28;;
68921;SDS011;55959;51.244;5.724;2023-07-31T04:22:06;5.35;;;3.20;;
68921;SDS011;55959;51.244;5.724;2023-07-31T04:24:32;5.28;;;3.30;;
68921;SDS011;55959;51.244;5.724;2023-07-31T04:26:59;6.25;;;3.20;;
68921;SDS011;55959;51.244;5.724;2023-07-31T04:29:25;8.02;;;4.20;;
68921;SDS011;55959;51.244;5.724;2023-07-31T04:31:51;5.68;;;3.97;;
68921;SDS011;55959;51.244;5.724;2023-07-31T04:34:16;7.15;;;3.92;;
68921;SDS011;55959;51.244;5.724;2023-07-31T04:36:42;5.07;;;3.30;;
68921;SDS011;55959;51.244;5.724;2023-07-31T04:39:08;6.20;;;3.70;;
68921;SDS011;55959;51.244;5.724;2023-07-31T04:41:33;7.75;;;3.97;;
68921;SDS011;55959;51.244;5.724;2023-07-31T04:43:59;7.78;;;4.07;;
68921;SDS011;55959;51.244;5.724;2023-07-31T04:46:25;4.18;;;3.20;;
68921;SDS011;55959;51.244;5.724;2023-07-31T04:48:51;4.38;;;3.42;;
68921;SDS011;55959;51.244;5.724;2023-07-31T04:51:17;3.78;;;3.20;;
68921;SDS011;55959;51.244;5.724;2023-07-31T04:53:43;4.88;;;3.40;;
68921;SDS011;55959;51.244;5.724;2023-07-31T04:56:08;8.60;;;3.80;;
68921;SDS011;55959;51.244;5.724;2023-07-31T04:58:34;5.63;;;3.58;;
68921;SDS011;55959;51.244;5.724;2023-07-31T05:01:00;5.35;;;3.10;;
68921;SDS011;55959;51.244;5.724;2023-07-31T05:03:25;5.00;;;3.80;;
68921;SDS011;55959;51.244;5.724;2023-07-31T05:05:51;5.63;;;3.22;;
68921;SDS011;55959;51.244;5.724;2023-07-31T05:08:17;5.18;;;3.58;;
68921;SDS011;55959;51.244;5.724;2023-07-31T05:10:43;4.85;;;3.42;;
68921;SDS011;55959;51.244;5.724;2023-07-31T05:13:09;4.78;;;3.30;;
68921;SDS011;55959;51.244;5.724;2023-07-31T05:15:34;6.82;;;3.95;;
68921;SDS011;55959;51.244;5.724;2023-07-31T05:18:00;4.70;;;3.28;;
68921;SDS011;55959;51.244;5.724;2023-07-31T05:20:26;5.45;;;3.70;;
68921;SDS011;55959;51.244;5.724;2023-07-31T05:22:52;3.83;;;2.60;;
68921;SDS011;55959;51.244;5.724;2023-07-31T05:25:19;3.67;;;2.78;;
68921;SDS011;55959;51.244;5.724;2023-07-31T05:27:45;4.10;;;3.20;;
68921;SDS011;55959;51.244;5.724;2023-07-31T05:30:10;4.80;;;3.42;;
68921;SDS011;55959;51.244;5.724;2023-07-31T05:32:37;5.43;;;3.60;;
68921;SDS011;55959;51.244;5.724;2023-07-31T05:35:03;3.72;;;3.30;;
68921;SDS011;55959;51.244;5.724;2023-07-31T05:37:29;4.75;;;2.97;;
68921;SDS011;55959;51.244;5.724;2023-07-31T05:39:55;6.10;;;3.30;;
68921;SDS011;55959;51.244;5.724;2023-07-31T05:42:21;3.88;;;2.88;;
68921;SDS011;55959;51.244;5.724;2023-07-31T05:44:46;4.22;;;3.13;;
68921;SDS011;55959;51.244;5.724;2023-07-31T05:47:12;3.75;;;3.38;;
68921;SDS011;55959;51.244;5.724;2023-07-31T05:49:38;3.38;;;2.70;;
68921;SDS011;55959;51.244;5.724;2023-07-31T05:52:04;4.60;;;3.03;;
68921;SDS011;55959;51.244;5.724;2023-07-31T05:54:30;4.28;;;3.25;;
68921;SDS011;55959;51.244;5.724;2023-07-31T05:56:57;7.30;;;3.00;;
68921;SDS011;55959;51.244;5.724;2023-07-31T05:59:22;4.55;;;3.22;;
68921;SDS011;55959;51.244;5.724;2023-07-31T06:01:48;3.70;;;2.92;;
68921;SDS011;55959;51.244;5.724;2023-07-31T06:04:14;5.38;;;3.28;;
68921;SDS011;55959;51.244;5.724;2023-07-31T06:06:40;3.72;;;2.85;;
68921;SDS011;55959;51.244;5.724;2023-07-31T06:09:05;3.88;;;2.78;;
68921;SDS011;55959;51.244;5.724;2023-07-31T06:11:33;4.47;;;2.90;;
68921;SDS011;55959;51.244;5.724;2023-07-31T06:13:59;4.22;;;3.33;;
68921;SDS011;55959;51.244;5.724;2023-07-31T06:16:26;5.10;;;3.30;;
68921;SDS011;55959;51.244;5.724;2023-07-31T06:18:52;5.47;;;3.08;;
68921;SDS011;55959;51.244;5.724;2023-07-31T06:21:17;4.80;;;2.85;;
68921;SDS011;55959;51.244;5.724;2023-07-31T06:23:43;5.28;;;3.00;;
68921;SDS011;55959;51.244;5.724;2023-07-31T06:26:09;4.63;;;2.75;;
68921;SDS011;55959;51.244;5.724;2023-07-31T06:28:35;4.88;;;3.00;;
68921;SDS011;55959;51.244;5.724;2023-07-31T06:31:00;5.45;;;3.42;;
68921;SDS011;55959;51.244;5.724;2023-07-31T06:33:27;6.72;;;2.83;;
68921;SDS011;55959;51.244;5.724;2023-07-31T06:35:53;3.75;;;3.05;;
68921;SDS011;55959;51.244;5.724;2023-07-31T06:38:22;4.90;;;3.10;;
68921;SDS011;55959;51.244;5.724;2023-07-31T06:40:50;4.90;;;2.92;;
68921;SDS011;55959;51.244;5.724;2023-07-31T06:43:16;5.32;;;2.88;;
68921;SDS011;55959;51.244;5.724;2023-07-31T06:45:42;3.95;;;2.58;;
68921;SDS011;55959;51.244;5.724;2023-07-31T06:48:08;4.38;;;3.15;;
68921;SDS011;55959;51.244;5.724;2023-07-31T06:50:33;5.82;;;2.90;;
68921;SDS011;55959;51.244;5.724;2023-07-31T06:52:59;4.32;;;3.40;;
68921;SDS011;55959;51.244;5.724;2023-07-31T06:55:25;3.95;;;3.10;;
68921;SDS011;55959;51.244;5.724;2023-07-31T06:57:53;4.25;;;2.80;;
68921;SDS011;55959;51.244;5.724;2023-07-31T07:00:21;3.70;;;2.50;;
68921;SDS011;55959;51.244;5.724;2023-07-31T07:02:48;3.33;;;2.45;;
68921;SDS011;55959;51.244;5.724;2023-07-31T07:05:14;2.50;;;2.28;;
68921;SDS011;55959;51.244;5.724;2023-07-31T07:07:41;2.90;;;2.33;;
68921;SDS011;55959;51.244;5.724;2023-07-31T07:10:07;5.18;;;2.67;;
68921;SDS011;55959;51.244;5.724;2023-07-31T07:12:34;3.47;;;2.30;;
68921;SDS011;55959;51.244;5.724;2023-07-31T07:15:00;3.72;;;2.55;;
68921;SDS011;55959;51.244;5.724;2023-07-31T07:17:27;4.13;;;2.33;;
68921;SDS011;55959;51.244;5.724;2023-07-31T07:19:58;3.63;;;2.22;;
68921;SDS011;55959;51.244;5.724;2023-07-31T07:22:24;3.17;;;2.10;;
68921;SDS011;55959;51.244;5.724;2023-07-31T07:24:51;2.90;;;2.25;;
68921;SDS011;55959;51.244;5.724;2023-07-31T07:27:18;3.75;;;2.85;;
68921;SDS011;55959;51.244;5.724;2023-07-31T07:29:43;4.45;;;2.45;;
68921;SDS011;55959;51.244;5.724;2023-07-31T07:32:10;4.13;;;2.60;;
68921;SDS011;55959;51.244;5.724;2023-07-31T07:34:37;3.78;;;2.47;;
68921;SDS011;55959;51.244;5.724;2023-07-31T07:37:03;3.80;;;2.97;;
68921;SDS011;55959;51.244;5.724;2023-07-31T07:39:29;3.83;;;2.65;;
68921;SDS011;55959;51.244;5.724;2023-07-31T07:41:55;4.38;;;2.60;;
68921;SDS011;55959;51.244;5.724;2023-07-31T07:44:20;3.72;;;2.45;;
68921;SDS011;55959;51.244;5.724;2023-07-31T07:46:46;5.10;;;2.58;;
68921;SDS011;55959;51.244;5.724;2023-07-31T07:49:12;3.92;;;2.60;;
68921;SDS011;55959;51.244;5.724;2023-07-31T07:51:38;2.95;;;2.55;;
68921;SDS011;55959;51.244;5.724;2023-07-31T07:54:03;3.83;;;2.53;;
68921;SDS011;55959;51.244;5.724;2023-07-31T07:56:29;3.92;;;2.65;;
68921;SDS011;55959;51.244;5.724;2023-07-31T07:58:55;3.55;;;2.50;;
68921;SDS011;55959;51.244;5.724;2023-07-31T08:01:21;3.80;;;2.55;;
68921;SDS011;55959;51.244;5.724;2023-07-31T08:03:47;4.07;;;2.85;;
68921;SDS011;55959;51.244;5.724;2023-07-31T08:06:13;3.30;;;2.50;;
68921;SDS011;55959;51.244;5.724;2023-07-31T08:08:39;3.50;;;2.53;;
68921;SDS011;55959;51.244;5.724;2023-07-31T08:11:05;3.83;;;2.72;;
68921;SDS011;55959;51.244;5.724;2023-07-31T08:13:31;4.45;;;2.53;;
68921;SDS011;55959;51.244;5.724;2023-07-31T08:15:57;3.67;;;2.53;;
68921;SDS011;55959;51.244;5.724;2023-07-31T08:18:22;4.22;;;2.85;;
68921;SDS011;55959;51.244;5.724;2023-07-31T08:20:48;4.35;;;2.90;;
68921;SDS011;55959;51.244;5.724;2023-07-31T08:23:14;3.97;;;3.10;;
68921;SDS011;55959;51.244;5.724;2023-07-31T08:25:40;3.55;;;2.47;;
68921;SDS011;55959;51.244;5.724;2023-07-31T08:28:07;3.70;;;2.25;;
68921;SDS011;55959;51.244;5.724;2023-07-31T08:30:33;3.58;;;2.63;;
68921;SDS011;55959;51.244;5.724;2023-07-31T08:32:59;4.63;;;2.97;;
68921;SDS011;55959;51.244;5.724;2023-07-31T08:35:25;6.82;;;3.65;;
68921;SDS011;55959;51.244;5.724;2023-07-31T08:37:53;4.90;;;2.92;;
68921;SDS011;55959;51.244;5.724;2023-07-31T08:40:19;4.10;;;2.65;;
68921;SDS011;55959;51.244;5.724;2023-07-31T08:42:47;4.38;;;2.70;;
68921;SDS011;55959;51.244;5.724;2023-07-31T08:45:15;5.10;;;3.15;;
68921;SDS011;55959;51.244;5.724;2023-07-31T08:47:44;4.43;;;2.88;;
68921;SDS011;55959;51.244;5.724;2023-07-31T08:50:13;3.45;;;2.90;;
68921;SDS011;55959;51.244;5.724;2023-07-31T08:52:40;4.18;;;2.78;;
68921;SDS011;55959;51.244;5.724;2023-07-31T08:55:06;4.40;;;2.55;;
68921;SDS011;55959;51.244;5.724;2023-07-31T08:57:34;3.75;;;2.47;;
68921;SDS011;55959;51.244;5.724;2023-07-31T09:00:04;3.83;;;2.33;;
68921;SDS011;55959;51.244;5.724;2023-07-31T09:02:43;4.25;;;2.72;;
68921;SDS011;55959;51.244;5.724;2023-07-31T09:05:44;6.55;;;3.40;;
68921;SDS011;55959;51.244;5.724;2023-07-31T09:08:15;4.00;;;2.72;;
68921;SDS011;55959;51.244;5.724;2023-07-31T09:10:45;3.45;;;2.80;;
68921;SDS011;55959;51.244;5.724;2023-07-31T09:13:12;3.80;;;3.08;;
68921;SDS011;55959;51.244;5.724;2023-07-31T09:15:43;3.65;;;2.50;;
68921;SDS011;55959;51.244;5.724;2023-07-31T09:18:10;4.85;;;2.80;;
68921;SDS011;55959;51.244;5.724;2023-07-31T09:20:36;3.42;;;2.47;;
68921;SDS011;55959;51.244;5.724;2023-07-31T09:25:37;3.50;;;2.53;;
68921;SDS011;55959;51.244;5.724;2023-07-31T09:28:07;4.35;;;2.97;;
68921;SDS011;55959;51.244;5.724;2023-07-31T09:30:48;3.63;;;2.92;;
68921;SDS011;55959;51.244;5.724;2023-07-31T09:33:16;3.75;;;2.80;;
68921;SDS011;55959;51.244;5.724;2023-07-31T09:35:43;3.92;;;2.50;;
68921;SDS011;55959;51.244;5.724;2023-07-31T09:38:10;3.72;;;2.58;;
68921;SDS011;55959;51.244;5.724;2023-07-31T09:40:39;5.20;;;2.95;;
68921;SDS011;55959;51.244;5.724;2023-07-31T09:43:07;4.35;;;2.65;;
68921;SDS011;55959;51.244;5.724;2023-07-31T09:45:42;3.58;;;2.80;;
68921;SDS011;55959;51.244;5.724;2023-07-31T09:48:11;3.95;;;2.70;;
68921;SDS011;55959;51.244;5.724;2023-07-31T09:50:44;4.20;;;2.58;;
68921;SDS011;55959;51.244;5.724;2023-07-31T09:53:12;4.07;;;2.97;;
68921;SDS011;55959;51.244;5.724;2023-07-31T09:55:39;4.72;;;3.20;;
68921;SDS011;55959;51.244;5.724;2023-07-31T09:58:08;2.97;;;2.30;;
68921;SDS011;55959;51.244;5.724;2023-07-31T10:00:38;3.25;;;2.58;;
68921;SDS011;55959;51.244;5.724;2023-07-31T10:03:05;4.03;;;2.25;;
68921;SDS011;55959;51.244;5.724;2023-07-31T10:08:01;2.42;;;2.00;;
68921;SDS011;55959;51.244;5.724;2023-07-31T10:10:27;3.50;;;2.25;;
68921;SDS011;55959;51.244;5.724;2023-07-31T10:12:53;2.95;;;2.20;;
68921;SDS011;55959;51.244;5.724;2023-07-31T10:15:21;3.38;;;2.83;;
68921;SDS011;55959;51.244;5.724;2023-07-31T10:17:48;2.88;;;2.03;;
68921;SDS011;55959;51.244;5.724;2023-07-31T10:20:15;5.45;;;2.55;;
68921;SDS011;55959;51.244;5.724;2023-07-31T10:22:42;2.75;;;2.03;;
68921;SDS011;55959;51.244;5.724;2023-07-31T10:25:11;2.88;;;2.05;;
68921;SDS011;55959;51.244;5.724;2023-07-31T10:27:41;2.85;;;2.35;;
68921;SDS011;55959;51.244;5.724;2023-07-31T10:30:16;2.22;;;1.98;;
68921;SDS011;55959;51.244;5.724;2023-07-31T10:32:45;3.88;;;2.10;;
68921;SDS011;55959;51.244;5.724;2023-07-31T10:35:14;2.72;;;1.98;;
68921;SDS011;55959;51.244;5.724;2023-07-31T10:37:42;3.25;;;2.10;;
68921;SDS011;55959;51.244;5.724;2023-07-31T10:42:54;3.78;;;2.20;;
68921;SDS011;55959;51.244;5.724;2023-07-31T10:45:35;2.75;;;2.03;;
68921;SDS011;55959;51.244;5.724;2023-07-31T10:48:14;3.38;;;2.22;;
68921;SDS011;55959;51.244;5.724;2023-07-31T10:50:48;2.78;;;2.33;;
68921;SDS011;55959;51.244;5.724;2023-07-31T10:55:49;3.05;;;2.10;;
68921;SDS011;55959;51.244;5.724;2023-07-31T10:58:18;3.03;;;1.60;;
68921;SDS011;55959;51.244;5.724;2023-07-31T11:00:45;2.60;;;2.03;;
68921;SDS011;55959;51.244;5.724;2023-07-31T11:03:17;3.20;;;2.20;;
68921;SDS011;55959;51.244;5.724;2023-07-31T11:10:51;2.15;;;1.95;;
68921;SDS011;55959;51.244;5.724;2023-07-31T11:13:33;3.47;;;2.20;;
68921;SDS011;55959;51.244;5.724;2023-07-31T11:16:14;3.15;;;2.10;;
68921;SDS011;55959;51.244;5.724;2023-07-31T11:18:41;2.95;;;2.20;;
68921;SDS011;55959;51.244;5.724;2023-07-31T11:21:12;4.35;;;2.20;;
68921;SDS011;55959;51.244;5.724;2023-07-31T11:23:50;2.40;;;2.08;;
68921;SDS011;55959;51.244;5.724;2023-07-31T11:26:18;2.50;;;1.98;;
68921;SDS011;55959;51.244;5.724;2023-07-31T11:28:47;4.05;;;2.20;;
68921;SDS011;55959;51.244;5.724;2023-07-31T11:31:14;3.20;;;2.00;;
68921;SDS011;55959;51.244;5.724;2023-07-31T11:33:41;4.18;;;2.33;;
68921;SDS011;55959;51.244;5.724;2023-07-31T11:36:10;3.53;;;1.80;;
68921;SDS011;55959;51.244;5.724;2023-07-31T11:38:41;3.05;;;1.92;;
68921;SDS011;55959;51.244;5.724;2023-07-31T11:41:07;2.30;;;2.10;;
68921;SDS011;55959;51.244;5.724;2023-07-31T11:43:33;3.42;;;2.13;;
68921;SDS011;55959;51.244;5.724;2023-07-31T11:46:01;3.38;;;2.60;;
68921;SDS011;55959;51.244;5.724;2023-07-31T11:48:31;4.47;;;3.00;;
68921;SDS011;55959;51.244;5.724;2023-07-31T11:51:07;3.50;;;2.15;;
68921;SDS011;55959;51.244;5.724;2023-07-31T11:53:42;3.50;;;2.50;;
68921;SDS011;55959;51.244;5.724;2023-07-31T11:56:17;3.60;;;2.75;;
68921;SDS011;55959;51.244;5.724;2023-07-31T11:58:53;3.60;;;2.40;;
68921;SDS011;55959;51.244;5.724;2023-07-31T12:01:23;2.95;;;2.50;;
68921;SDS011;55959;51.244;5.724;2023-07-31T12:03:50;3.67;;;3.03;;
68921;SDS011;55959;51.244;5.724;2023-07-31T12:06:17;4.82;;;3.22;;
68921;SDS011;55959;51.244;5.724;2023-07-31T12:08:45;5.68;;;3.15;;
68921;SDS011;55959;51.244;5.724;2023-07-31T12:11:11;3.13;;;2.65;;
68921;SDS011;55959;51.244;5.724;2023-07-31T12:13:40;3.47;;;2.90;;
68921;SDS011;55959;51.244;5.724;2023-07-31T12:16:06;6.03;;;3.30;;
68921;SDS011;55959;51.244;5.724;2023-07-31T12:18:35;7.15;;;3.58;;
68921;SDS011;55959;51.244;5.724;2023-07-31T12:21:04;2.97;;;2.67;;
68921;SDS011;55959;51.244;5.724;2023-07-31T12:23:33;4.95;;;3.38;;
68921;SDS011;55959;51.244;5.724;2023-07-31T12:26:08;4.97;;;3.42;;
68921;SDS011;55959;51.244;5.724;2023-07-31T12:28:42;5.07;;;3.30;;
68921;SDS011;55959;51.244;5.724;2023-07-31T12:31:17;4.78;;;3.38;;
68921;SDS011;55959;51.244;5.724;2023-07-31T12:33:47;5.50;;;3.55;;
68921;SDS011;55959;51.244;5.724;2023-07-31T12:36:16;5.65;;;3.60;;
68921;SDS011;55959;51.244;5.724;2023-07-31T12:38:46;5.75;;;3.75;;
68921;SDS011;55959;51.244;5.724;2023-07-31T12:41:12;5.50;;;3.30;;
68921;SDS011;55959;51.244;5.724;2023-07-31T12:43:39;4.38;;;3.35;;
68921;SDS011;55959;51.244;5.724;2023-07-31T12:46:07;5.75;;;3.83;;
68921;SDS011;55959;51.244;5.724;2023-07-31T12:48:34;6.30;;;4.15;;
68921;SDS011;55959;51.244;5.724;2023-07-31T12:51:00;4.68;;;3.05;;
68921;SDS011;55959;51.244;5.724;2023-07-31T12:53:26;5.45;;;3.55;;
68921;SDS011;55959;51.244;5.724;2023-07-31T12:55:52;4.85;;;3.78;;
68921;SDS011;55959;51.244;5.724;2023-07-31T12:58:18;6.57;;;3.90;;
68921;SDS011;55959;51.244;5.724;2023-07-31T13:00:44;4.63;;;3.30;;
68921;SDS011;55959;51.244;5.724;2023-07-31T13:03:09;4.38;;;3.35;;
68921;SDS011;55959;51.244;5.724;2023-07-31T13:05:35;6.47;;;3.90;;
68921;SDS011;55959;51.244;5.724;2023-07-31T13:08:01;4.88;;;3.53;;
68921;SDS011;55959;51.244;5.724;2023-07-31T13:10:27;5.40;;;3.25;;
68921;SDS011;55959;51.244;5.724;2023-07-31T13:12:54;4.07;;;3.42;;
68921;SDS011;55959;51.244;5.724;2023-07-31T13:15:20;4.85;;;3.28;;
68921;SDS011;55959;51.244;5.724;2023-07-31T13:17:46;4.15;;;3.60;;
68921;SDS011;55959;51.244;5.724;2023-07-31T13:20:12;6.80;;;5.22;;
68921;SDS011;55959;51.244;5.724;2023-07-31T13:22:37;4.57;;;3.70;;
68921;SDS011;55959;51.244;5.724;2023-07-31T13:25:03;4.22;;;3.30;;
68921;SDS011;55959;51.244;5.724;2023-07-31T13:27:31;5.60;;;3.42;;
68921;SDS011;55959;51.244;5.724;2023-07-31T13:29:57;5.00;;;3.42;;
68921;SDS011;55959;51.244;5.724;2023-07-31T13:32:23;4.22;;;3.25;;
68921;SDS011;55959;51.244;5.724;2023-07-31T13:34:48;5.28;;;3.88;;
68921;SDS011;55959;51.244;5.724;2023-07-31T13:37:15;4.80;;;3.15;;
68921;SDS011;55959;51.244;5.724;2023-07-31T13:39:41;8.32;;;3.45;;
68921;SDS011;55959;51.244;5.724;2023-07-31T13:42:07;3.55;;;2.70;;
68921;SDS011;55959;51.244;5.724;2023-07-31T13:44:37;5.28;;;3.10;;
68921;SDS011;55959;51.244;5.724;2023-07-31T13:47:03;4.80;;;3.10;;
68921;SDS011;55959;51.244;5.724;2023-07-31T13:49:29;4.07;;;3.17;;
68921;SDS011;55959;51.244;5.724;2023-07-31T13:51:58;5.40;;;3.65;;
68921;SDS011;55959;51.244;5.724;2023-07-31T13:54:24;5.07;;;3.22;;
68921;SDS011;55959;51.244;5.724;2023-07-31T13:56:53;4.80;;;3.50;;
68921;SDS011;55959;51.244;5.724;2023-07-31T13:59:19;4.45;;;3.38;;
68921;SDS011;55959;51.244;5.724;2023-07-31T14:01:45;4.90;;;3.63;;
68921;SDS011;55959;51.244;5.724;2023-07-31T14:04:11;5.43;;;3.53;;
68921;SDS011;55959;51.244;5.724;2023-07-31T14:06:37;4.82;;;3.58;;
68921;SDS011;55959;51.244;5.724;2023-07-31T14:09:03;5.75;;;3.25;;
68921;SDS011;55959;51.244;5.724;2023-07-31T14:11:32;5.35;;;3.83;;
68921;SDS011;55959;51.244;5.724;2023-07-31T14:13:58;6.47;;;4.10;;
68921;SDS011;55959;51.244;5.724;2023-07-31T14:16:24;6.72;;;3.58;;
68921;SDS011;55959;51.244;5.724;2023-07-31T14:18:50;6.20;;;3.97;;
68921;SDS011;55959;51.244;5.724;2023-07-31T14:21:18;6.15;;;3.72;;
68921;SDS011;55959;51.244;5.724;2023-07-31T14:23:44;4.28;;;3.17;;
68921;SDS011;55959;51.244;5.724;2023-07-31T14:26:10;4.88;;;4.07;;
68921;SDS011;55959;51.244;5.724;2023-07-31T14:28:36;5.00;;;3.67;;
68921;SDS011;55959;51.244;5.724;2023-07-31T14:31:02;4.95;;;4.03;;
68921;SDS011;55959;51.244;5.724;2023-07-31T14:33:28;6.05;;;3.72;;
68921;SDS011;55959;51.244;5.724;2023-07-31T14:35:54;5.13;;;3.47;;
68921;SDS011;55959;51.244;5.724;2023-07-31T14:38:20;6.65;;;4.28;;
68921;SDS011;55959;51.244;5.724;2023-07-31T14:40:46;5.60;;;4.25;;
68921;SDS011;55959;51.244;5.724;2023-07-31T14:43:11;5.85;;;3.53;;
68921;SDS011;55959;51.244;5.724;2023-07-31T14:45:37;5.60;;;3.72;;
68921;SDS011;55959;51.244;5.724;2023-07-31T14:48:03;4.43;;;3.58;;
68921;SDS011;55959;51.244;5.724;2023-07-31T14:50:29;6.55;;;3.70;;
68921;SDS011;55959;51.244;5.724;2023-07-31T14:52:57;5.70;;;3.92;;
68921;SDS011;55959;51.244;5.724;2023-07-31T14:55:23;4.85;;;3.55;;
68921;SDS011;55959;51.244;5.724;2023-07-31T14:57:49;6.80;;;4.00;;
68921;SDS011;55959;51.244;5.724;2023-07-31T15:00:14;5.18;;;3.72;;
68921;SDS011;55959;51.244;5.724;2023-07-31T15:02:40;5.20;;;3.97;;
68921;SDS011;55959;51.244;5.724;2023-07-31T15:05:07;4.65;;;3.60;;
68921;SDS011;55959;51.244;5.724;2023-07-31T15:07:33;6.93;;;3.88;;
68921;SDS011;55959;51.244;5.724;2023-07-31T15:09:59;5.57;;;4.10;;